HOURLY OBS INDEX

025

Murray Mallee and Upper Southeast

KEITH (MUNKORA)

Site: 025557
Alt: 27.0m
46km WNW of BORDERTOWN


  Time     Wind        Temp  DP   Baro     Rain since   Rain past  Vis(m), Cloud(base in m), Weather
  local        km/h                         9am  last   hr   10m    
Wed 14:30  WSW 22/ 32  14.1  5.2  1016.9    0.0   0.0   0.0   0.0   ----- 
Wed 15:00  WSW 22/ 30  12.9  5.6  1017.0    0.0   0.0   0.0   0.0   ----- 
Wed 15:30    W 24/ 32  12.9  5.1  1017.2    0.0   0.0   0.0   0.0   ----- 
Wed 16:00    W 24/ 30  13.1  4.5  1017.2    0.0   0.0   0.0   0.0   ----- 
Wed 16:30    W 15/ 24  11.6  5.5  1017.5    0.0   0.0   0.0   0.0   ----- 
Wed 17:00   SW 19/ 26  11.3  5.8  1017.8    0.0   0.0   0.0   0.0   ----- 
Wed 17:30  WSW 13/ 19   9.8  4.6  1018.1    0.0   0.0   0.0   0.0   ----- 
Wed 18:00  WSW 11/ 15   9.1  4.7  1018.4    0.0   0.0   0.0   0.0   ----- 
Wed 18:30    W  7/  9   7.5  4.3  1018.8    0.0   0.0   0.0   0.0   ----- 
Wed 19:00  WNW  7/  9   5.2  2.6  1019.0    0.0   0.0   0.0   0.0   ----- 
Wed 19:30   NW  7/  7   3.9  1.6  1019.3    0.0   0.0   0.0   0.0   ----- 
Wed 20:00   NW  6/  7   3.2  1.1  1019.5    0.0   0.0   0.0   0.0   ----- 

LAMEROO (AUSTIN PLAINS)

Site: 025562
Alt: 110.1m
106km NNW of BORDERTOWN


  Time     Wind        Temp  DP   Baro     Rain since   Rain past  Vis(m), Cloud(base in m), Weather
  local        km/h                         9am  last   hr   10m    
Wed 14:30   SW 19/ 24  10.7  8.5  1017.6    2.2   0.8   0.8   0.0   ----- 
Wed 15:00  WSW 26/ 33  11.3  5.6  1017.5    2.2   0.0   0.8   0.0   ----- 
Wed 15:30  WSW 28/ 41  11.5  5.6  1017.6    2.2   0.0   0.0   0.0   ----- 
Wed 16:00  SSW 22/ 32  11.6  6.5  1017.6    2.2   0.0   0.0   0.0   ----- 
Wed 16:30   SW 20/ 28  12.0  5.6  1017.7    2.2   0.0   0.0   0.0   ----- 
Wed 17:00  SSW 24/ 32  11.2  5.3  1017.9    2.2   0.0   0.0   0.0   ----- 
Wed 17:30   SW 17/ 22  10.5  5.3  1018.3    2.2   0.0   0.0   0.0   ----- 
Wed 18:00   SW 11/ 20   8.5  4.7  1018.6    2.2   0.0   0.0   0.0   ----- 
Wed 18:30   SW 11/ 13   6.8  4.1  1019.0    2.2   0.0   0.0   0.0   ----- 
Wed 19:00   SW  7/  9   7.5  4.8  1019.3    2.2   0.0   0.0   0.0   ----- 
Wed 19:30    W  9/  9   6.3  3.6  1019.7    2.2   0.0   0.0   0.0   ----- 
Wed 20:00    W 13/ 17   5.5  3.5  1020.2    2.2   0.0   0.0   0.0   -----